Observation data for Jayton on 12/08/2019      Previous  Date       Current Mesonet Observations  Soil Data  Daily Summary Page  Observations in Plain Language
KJTS 080600Z 21009KT 11/04 A3001 RMK A01 T01130037  RH  061%=      5-min Rain = 0
KJTS 080605Z 21009KT 12/04 A3001 RMK A01 T01150038  RH  060%=      5-min Rain = 0
KJTS 080610Z 21009KT 12/04 A30 RMK A01 T01160038  RH  060%=      5-min Rain = 0
KJTS 080615Z 21009KT 12/04 A30 RMK A01 T01150038  RH  060%=      5-min Rain = 0
KJTS 080620Z 21009KT 12/04 A30 RMK A01 T01150037  RH  060%=      5-min Rain = 0
KJTS 080625Z 21008KT 11/04 A30 RMK A01 T01140037  RH  060%=      5-min Rain = 0
KJTS 080630Z 21007KT 11/04 A2999 RMK A01 T01110037  RH  061%=      5-min Rain = 0
KJTS 080635Z 21008KT 11/04 A2999 RMK A01 T01110036  RH  061%=      5-min Rain = 0
KJTS 080640Z 21008KT 11/04 A2999 RMK A01 T01100037  RH  062%=      5-min Rain = 0
KJTS 080645Z 21008KT 11/04 A2998 RMK A01 T01100037  RH  062%=      5-min Rain = 0
KJTS 080650Z 21008KT 11/04 A2998 RMK A01 T01100037  RH  062%=      5-min Rain = 0
KJTS 080655Z 22009KT 11/04 A2998 RMK A01 T01110037  RH  061%=      5-min Rain = 0
KJTS 080700Z 22009KT 11/04 A2998 RMK A01 T01110037  RH  061%=      5-min Rain = 0
KJTS 080705Z 22009KT 11/04 A2998 RMK A01 T01110037  RH  062%=      5-min Rain = 0
KJTS 080710Z 22010KT 11/04 A2998 RMK A01 T01120037  RH  061%=      5-min Rain = 0
KJTS 080715Z 22010KT 11/04 A2998 RMK A01 T01140038  RH  061%=      5-min Rain = 0
KJTS 080720Z 23010KT 11/04 A2997 RMK A01 T01140037  RH  060%=      5-min Rain = 0
KJTS 080725Z 23010KT 11/04 A2997 RMK A01 T01130038  RH  061%=      5-min Rain = 0
KJTS 080730Z 22011G16KT 11/04 A2997 RMK A01 T01130038  RH  061%=      5-min Rain = 0
KJTS 080735Z 22011KT 11/04 A2996 RMK A01 T01120038  RH  061%=      5-min Rain = 0
KJTS 080740Z 22010KT 11/04 A2996 RMK A01 T01100037  RH  062%=      5-min Rain = 0
KJTS 080745Z 22010KT 11/04 A2996 RMK A01 T01090037  RH  063%=      5-min Rain = 0
KJTS 080750Z 22011KT 11/04 A2996 RMK A01 T01100038  RH  062%=      5-min Rain = 0
KJTS 080755Z 22012KT 11/04 A2995 RMK A01 T01100038  RH  062%=      5-min Rain = 0
KJTS 080800Z 21011G16KT 11/04 A2994 RMK A01 T01100038  RH  062%=      5-min Rain = 0
KJTS 080805Z 21012KT 11/04 A2994 RMK A01 T01090038  RH  063%=      5-min Rain = 0
KJTS 080810Z 22012G17KT 11/04 A2995 RMK A01 T01100038  RH  062%=      5-min Rain = 0
KJTS 080815Z 22013KT 11/04 A2995 RMK A01 T01110038  RH  062%=      5-min Rain = 0
KJTS 080820Z 22012KT 11/04 A2995 RMK A01 T01100038  RH  062%=      5-min Rain = 0
KJTS 080825Z 22011KT 11/04 A2995 RMK A01 T01100038  RH  063%=      5-min Rain = 0
KJTS 080830Z 22011KT 11/04 A2995 RMK A01 T01090038  RH  063%=      5-min Rain = 0
KJTS 080835Z 22010KT 11/04 A2994 RMK A01 T01070038  RH  063%=      5-min Rain = 0
KJTS 080840Z 22010KT 10/04 A2995 RMK A01 T01040038  RH  065%=      5-min Rain = 0
KJTS 080845Z 22010KT 10/04 A2995 RMK A01 T01040038  RH  065%=      5-min Rain = 0
KJTS 080850Z 21010KT 10/04 A2995 RMK A01 T01010038  RH  066%=      5-min Rain = 0
KJTS 080855Z 21010KT 10/04 A2994 RMK A01 T00990038  RH  067%=      5-min Rain = 0
KJTS 080900Z 21010KT 10/04 A2994 RMK A01 T00980038  RH  068%=      5-min Rain = 0
KJTS 080905Z 22010KT 10/04 A2994 RMK A01 T00970038  RH  068%=      5-min Rain = 0
KJTS 080910Z 22010KT 10/04 A2995 RMK A01 T00990038  RH  067%=      5-min Rain = 0
KJTS 080915Z 23010KT 10/04 A2995 RMK A01 T01020038  RH  066%=      5-min Rain = 0
KJTS 080920Z 22010KT 10/04 A2994 RMK A01 T01040038  RH  065%=      5-min Rain = 0
KJTS 080925Z 22009KT 10/04 A2994 RMK A01 T01040038  RH  065%=      5-min Rain = 0
KJTS 080930Z 23009KT 10/04 A2994 RMK A01 T01030038  RH  065%=      5-min Rain = 0
KJTS 080935Z 24008KT 10/04 A2994 RMK A01 T01030038  RH  065%=      5-min Rain = 0
KJTS 080940Z 24006KT 10/04 A2994 RMK A01 T01030038  RH  065%=      5-min Rain = 0
KJTS 080945Z 24005KT 10/04 A2993 RMK A01 T01010038  RH  066%=      5-min Rain = 0
KJTS 080950Z 24006KT 10/04 A2994 RMK A01 T00970037  RH  068%=      5-min Rain = 0
KJTS 080955Z 24006KT 10/04 A2994 RMK A01 T00950037  RH  069%=      5-min Rain = 0
KJTS 081000Z 24006KT 09/04 A2994 RMK A01 T00930037  RH  069%=      5-min Rain = 0
KJTS 081005Z 25006KT 09/04 A2994 RMK A01 T00920037  RH  070%=      5-min Rain = 0
KJTS 081010Z 25007KT 09/04 A2995 RMK A01 T00920037  RH  070%=      5-min Rain = 0
KJTS 081015Z 26006KT 09/04 A2995 RMK A01 T00910038  RH  071%=      5-min Rain = 0
KJTS 081020Z 24006KT 09/04 A2994 RMK A01 T00920039  RH  071%=      5-min Rain = 0
KJTS 081025Z 23007KT 10/04 A2993 RMK A01 T00950041  RH  070%=      5-min Rain = 0
KJTS 081030Z 23008KT 10/04 A2992 RMK A01 T00990042  RH  069%=      5-min Rain = 0
KJTS 081035Z 23009KT 10/04 A2993 RMK A01 T01040043  RH  067%=      5-min Rain = 0
KJTS 081040Z 23008KT 11/04 A2993 RMK A01 T01080043  RH  065%=      5-min Rain = 0
KJTS 081045Z 23009KT 11/04 A2993 RMK A01 T01090043  RH  065%=      5-min Rain = 0
KJTS 081050Z 24006KT 11/04 A2993 RMK A01 T01060043  RH  066%=      5-min Rain = 0
KJTS 081055Z 24007KT 10/04 A2993 RMK A01 T01030043  RH  068%=      5-min Rain = 0
KJTS 081100Z 25007KT 10/04 A2993 RMK A01 T00990042  RH  069%=      5-min Rain = 0
KJTS 081105Z 24006KT 10/04 A2993 RMK A01 T00960042  RH  070%=      5-min Rain = 0
KJTS 081110Z 24006KT 10/04 A2993 RMK A01 T00960042  RH  071%=      5-min Rain = 0
KJTS 081115Z 24007KT 10/04 A2993 RMK A01 T00950042  RH  071%=      5-min Rain = 0
KJTS 081120Z 23008KT 10/04 A2992 RMK A01 T00970042  RH  070%=      5-min Rain = 0
KJTS 081125Z 23007KT 10/04 A2992 RMK A01 T00980042  RH  069%=      5-min Rain = 0
KJTS 081130Z 23006KT 10/04 A2991 RMK A01 T00990042  RH  069%=      5-min Rain = 0
KJTS 081135Z 22006KT 10/04 A2991 RMK A01 T00970042  RH  070%=      5-min Rain = 0
KJTS 081140Z 22007KT 10/04 A2991 RMK A01 T00970043  RH  070%=      5-min Rain = 0
KJTS 081145Z 22008KT 10/04 A2991 RMK A01 T01010044  RH  069%=      5-min Rain = 0
KJTS 081150Z 22007KT 10/04 A2991 RMK A01 T01040044  RH  068%=      5-min Rain = 0
KJTS 081155Z 23007KT 10/04 A299 RMK A01 T01040044  RH  068%=      5-min Rain = 0
KJTS 081200Z 23005KT 11/04 A299 RMK A01 T01050044  RH  068%=      5-min Rain = 0
KJTS 081205Z 21004KT 10/05 A299 RMK A01 T01030045  RH  068%=      5-min Rain = 0
KJTS 081210Z 21006KT 10/05 A299 RMK A01 T01010045  RH  069%=      5-min Rain = 0
KJTS 081215Z 22007KT 10/05 A2991 RMK A01 T01020045  RH  069%=      5-min Rain = 0
KJTS 081220Z 23008KT 11/05 A299 RMK A01 T01050045  RH  068%=      5-min Rain = 0
KJTS 081225Z 23008KT 11/05 A299 RMK A01 T01060045  RH  067%=      5-min Rain = 0
KJTS 081230Z 23009KT 11/05 A299 RMK A01 T01080045  RH  066%=      5-min Rain = 0
KJTS 081235Z 23010KT 11/05 A2991 RMK A01 T01090045  RH  066%=      5-min Rain = 0
KJTS 081240Z 23008KT 11/04 A299 RMK A01 T01090044  RH  066%=      5-min Rain = 0
KJTS 081245Z 23008KT 11/04 A299 RMK A01 T01060044  RH  067%=      5-min Rain = 0
KJTS 081250Z 23007KT 11/04 A2991 RMK A01 T01050044  RH  067%=      5-min Rain = 0
KJTS 081255Z 23006KT 10/04 A299 RMK A01 T01020043  RH  068%=      5-min Rain = 0
KJTS 081300Z 24006KT 10/04 A2991 RMK A01 T01010043  RH  069%=      5-min Rain = 0
KJTS 081305Z 23007KT 10/04 A2991 RMK A01 T01010043  RH  069%=      5-min Rain = 0
KJTS 081310Z 24008KT 10/04 A2991 RMK A01 T01030044  RH  068%=      5-min Rain = 0
KJTS 081315Z 23008KT 11/05 A2991 RMK A01 T01050045  RH  068%=      5-min Rain = 0
KJTS 081320Z 24009KT 11/05 A2991 RMK A01 T01060045  RH  067%=      5-min Rain = 0
KJTS 081325Z 24009G14KT 11/05 A2991 RMK A01 T01070046  RH  067%=      5-min Rain = 0
KJTS 081330Z 24009G14KT 11/05 A299 RMK A01 T01100046  RH  066%=      5-min Rain = 0
KJTS 081335Z 24011KT 11/05 A299 RMK A01 T01130046  RH  065%=      5-min Rain = 0
KJTS 081340Z 24010G15KT 11/05 A2991 RMK A01 T01140046  RH  064%=      5-min Rain = 0
KJTS 081345Z 24010KT 11/05 A2991 RMK A01 T01130046  RH  064%=      5-min Rain = 0
KJTS 081350Z 24010KT 11/05 A2991 RMK A01 T01140046  RH  064%=      5-min Rain = 0
KJTS 081355Z 24010KT 11/05 A2991 RMK A01 T01140046  RH  064%=      5-min Rain = 0
KJTS 081400Z 24010KT 11/05 A2991 RMK A01 T01140047  RH  064%=      5-min Rain = 0
KJTS 081405Z 24009KT 11/05 A299 RMK A01 T01140047  RH  065%=      5-min Rain = 0
KJTS 081410Z 24010KT 11/05 A299 RMK A01 T01140046  RH  064%=      5-min Rain = 0
KJTS 081415Z 23008KT 12/05 A299 RMK A01 T01150047  RH  064%=      5-min Rain = 0
KJTS 081420Z 23009KT 12/05 A299 RMK A01 T01160047  RH  064%=      5-min Rain = 0
KJTS 081425Z 23009G14KT 12/05 A299 RMK A01 T01170047  RH  063%=      5-min Rain = 0
KJTS 081430Z 23010KT 12/05 A299 RMK A01 T01180046  RH  063%=      5-min Rain = 0
KJTS 081435Z 23010KT 12/05 A299 RMK A01 T01200047  RH  062%=      5-min Rain = 0
KJTS 081440Z 23011KT 12/05 A2989 RMK A01 T01220047  RH  061%=      5-min Rain = 0
KJTS 081445Z 22012KT 12/05 A2989 RMK A01 T01230046  RH  060%=      5-min Rain = 0
KJTS 081450Z 23009G14KT 12/05 A2989 RMK A01 T01240046  RH  060%=      5-min Rain = 0
KJTS 081455Z 22010KT 13/05 A2989 RMK A01 T01260046  RH  060%=      5-min Rain = 0
KJTS 081500Z 23010KT 13/05 A2989 RMK A01 T01270046  RH  059%=      5-min Rain = 0
KJTS 081505Z 23010KT 13/05 A2989 RMK A01 T01310048  RH  058%=      5-min Rain = 0
KJTS 081510Z 22012KT 14/05 A2989 RMK A01 T01350048  RH  057%=      5-min Rain = 0
KJTS 081515Z 22012KT 14/05 A2989 RMK A01 T01390047  RH  055%=      5-min Rain = 0
KJTS 081520Z 23012KT 14/05 A2989 RMK A01 T01410047  RH  054%=      5-min Rain = 0
KJTS 081525Z 23011G16KT 14/05 A2989 RMK A01 T01410046  RH  054%=      5-min Rain = 0
KJTS 081530Z 23011KT 14/05 A2989 RMK A01 T01410046  RH  054%=      5-min Rain = 0
KJTS 081535Z 23011G18KT 14/05 A2989 RMK A01 T01440046  RH  053%=      5-min Rain = 0
KJTS 081540Z 23012G17KT 15/05 A2989 RMK A01 T01490047  RH  052%=      5-min Rain = 0
KJTS 081545Z 23012G17KT 15/05 A2989 RMK A01 T01510047  RH  051%=      5-min Rain = 0
KJTS 081550Z 23015G20KT 15/05 A2988 RMK A01 T01530046  RH  050%=      5-min Rain = 0
KJTS 081555Z 23015KT 15/05 A2989 RMK A01 T01540045  RH  049%=      5-min Rain = 0
KJTS 081600Z 23013KT 16/05 A2989 RMK A01 T01580047  RH  049%=      5-min Rain = 0
KJTS 081605Z 24014KT 16/05 A2989 RMK A01 T01630047  RH  047%=      5-min Rain = 0
KJTS 081610Z 24013G18KT 17/05 A2989 RMK A01 T01670047  RH  046%=      5-min Rain = 0
KJTS 081615Z 24013G19KT 17/05 A2989 RMK A01 T01710048  RH  045%=      5-min Rain = 0
KJTS 081620Z 23014G19KT 17/05 A2989 RMK A01 T01700046  RH  045%=      5-min Rain = 0
KJTS 081625Z 23013G19KT 17/05 A2989 RMK A01 T01720048  RH  045%=      5-min Rain = 0
KJTS 081630Z 23013G18KT 18/05 A2989 RMK A01 T01770048  RH  044%=      5-min Rain = 0
KJTS 081635Z 23014G20KT 18/05 A2988 RMK A01 T01800048  RH  043%=      5-min Rain = 0
KJTS 081640Z 24013KT 18/05 A2988 RMK A01 T01830048  RH  042%=      5-min Rain = 0
KJTS 081645Z 25013KT 19/05 A2987 RMK A01 T01870048  RH  041%=      5-min Rain = 0
KJTS 081650Z 24012G19KT 19/05 A2987 RMK A01 T01880047  RH  040%=      5-min Rain = 0
KJTS 081655Z 25015G20KT 19/05 A2986 RMK A01 T01880046  RH  040%=      5-min Rain = 0
KJTS 081700Z 25014G19KT 19/05 A2987 RMK A01 T01870046  RH  040%=      5-min Rain = 0
KJTS 081705Z 25015G20KT 19/05 A2987 RMK A01 T01870046  RH  040%=      5-min Rain = 0
KJTS 081710Z 25016G22KT 19/05 A2987 RMK A01 T01890047  RH  040%=      5-min Rain = 0
KJTS 081715Z 25015KT 19/05 A2987 RMK A01 T01880047  RH  040%=      5-min Rain = 0
KJTS 081720Z 25014KT 19/05 A2987 RMK A01 T01890048  RH  040%=      5-min Rain = 0
KJTS 081725Z 25013G18KT 19/05 A2987 RMK A01 T01920049  RH  040%=      5-min Rain = 0
KJTS 081730Z 25014G19KT 19/05 A2986 RMK A01 T01930048  RH  039%=      5-min Rain = 0
KJTS 081735Z 25014G19KT 19/05 A2986 RMK A01 T01940049  RH  039%=      5-min Rain = 0
KJTS 081740Z 25013G18KT 19/05 A2986 RMK A01 T01940050  RH  039%=      5-min Rain = 0
KJTS 081745Z 25012KT 20/05 A2986 RMK A01 T01970050  RH  039%=      5-min Rain = 0
KJTS 081750Z 25013KT 20/05 A2986 RMK A01 T01980050  RH  039%=      5-min Rain = 0
KJTS 081755Z 25011G16KT 20/05 A2986 RMK A01 T01990051  RH  039%=      5-min Rain = 0
KJTS 081800Z 25012G17KT 20/05 A2986 RMK A01 T01990051  RH  039%=      5-min Rain = 0
KJTS 081805Z 25012G17KT 20/05 A2985 RMK A01 T02010052  RH  038%=      5-min Rain = 0
KJTS 081810Z 25012G17KT 20/05 A2985 RMK A01 T02040053  RH  038%=      5-min Rain = 0
KJTS 081815Z 25012G17KT 21/05 A2984 RMK A01 T02100053  RH  037%=      5-min Rain = 0
KJTS 081820Z 24013KT 21/05 A2983 RMK A01 T02120053  RH  036%=      5-min Rain = 0
KJTS 081825Z 25014G21KT 21/05 A2983 RMK A01 T02120053  RH  036%=      5-min Rain = 0
KJTS 081830Z 24015G20KT 22/05 A2982 RMK A01 T02150052  RH  035%=      5-min Rain = 0
KJTS 081835Z 25014G21KT 22/05 A2982 RMK A01 T02170051  RH  035%=      5-min Rain = 0
KJTS 081840Z 25012G18KT 22/05 A2982 RMK A01 T02200050  RH  034%=      5-min Rain = 0
KJTS 081845Z 25015G22KT 22/05 A2982 RMK A01 T02210045  RH  032%=      5-min Rain = 0
KJTS 081850Z 24015KT 22/04 A2981 RMK A01 T02230044  RH  032%=      5-min Rain = 0
KJTS 081855Z 24016KT 23/04 A2981 RMK A01 T02290043  RH  030%=      5-min Rain = 0
KJTS 081900Z 24016G23KT 23/04 A2981 RMK A01 T02310044  RH  030%=      5-min Rain = 0
KJTS 081905Z 23015G22KT 23/05 A2981 RMK A01 T02290045  RH  031%=      5-min Rain = 0
KJTS 081910Z 23015G20KT 23/04 A2981 RMK A01 T02270044  RH  031%=      5-min Rain = 0
KJTS 081915Z 25016G22KT 23/04 A2981 RMK A01 T02250044  RH  031%=      5-min Rain = 0
KJTS 081920Z 24016G21KT 22/05 A298 RMK A01 T02240045  RH  032%=      5-min Rain = 0
KJTS 081925Z 23014KT 23/05 A298 RMK A01 T02250048  RH  032%=      5-min Rain = 0
KJTS 081930Z 22014G19KT 22/05 A298 RMK A01 T02240050  RH  033%=      5-min Rain = 0
KJTS 081935Z 22013KT 22/05 A298 RMK A01 T02220053  RH  034%=      5-min Rain = 0
KJTS 081940Z 22012KT 22/06 A2979 RMK A01 T02240055  RH  034%=      5-min Rain = 0
KJTS 081945Z 22012G17KT 23/06 A2979 RMK A01 T02260057  RH  034%=      5-min Rain = 0
KJTS 081950Z 22014G19KT 23/06 A2979 RMK A01 T02300058  RH  034%=      5-min Rain = 0
KJTS 081955Z 23016KT 23/05 A2978 RMK A01 T02290053  RH  033%=      5-min Rain = 0
KJTS 082000Z 24014G21KT 23/05 A2978 RMK A01 T02300047  RH  031%=      5-min Rain = 0
KJTS 082005Z 23015G20KT 23/05 A2978 RMK A01 T02320046  RH  030%=      5-min Rain = 0
KJTS 082010Z 23013G18KT 24/05 A2978 RMK A01 T02360046  RH  030%=      5-min Rain = 0
KJTS 082015Z 24015G20KT 24/05 A2977 RMK A01 T02380046  RH  029%=      5-min Rain = 0
KJTS 082020Z 24013G18KT 24/05 A2977 RMK A01 T02390047  RH  029%=      5-min Rain = 0
KJTS 082025Z 24016G25KT 24/05 A2977 RMK A01 T02430045  RH  028%=      5-min Rain = 0
KJTS 082030Z 24015G21KT 24/05 A2977 RMK A01 T02440045  RH  028%=      5-min Rain = 0
KJTS 082035Z 23016G24KT 25/05 A2977 RMK A01 T02450045  RH  028%=      5-min Rain = 0
KJTS 082040Z 23017G22KT 25/04 A2977 RMK A01 T02450043  RH  028%=      5-min Rain = 0
KJTS 082045Z 24015G21KT 25/04 A2977 RMK A01 T02450042  RH  027%=      5-min Rain = 0
KJTS 082050Z 24015G21KT 25/04 A2977 RMK A01 T02460043  RH  027%=      5-min Rain = 0
KJTS 082055Z 24017G23KT 24/04 A2977 RMK A01 T02430041  RH  028%=      5-min Rain = 0
KJTS 082100Z 24018G24KT 24/04 A2977 RMK A01 T02390040  RH  028%=      5-min Rain = 0
KJTS 082105Z 24016G22KT 24/04 A2976 RMK A01 T02380042  RH  029%=      5-min Rain = 0
KJTS 082110Z 25017G24KT 24/04 A2977 RMK A01 T02370043  RH  029%=      5-min Rain = 0
KJTS 082115Z 24015G26KT 24/05 A2977 RMK A01 T02370046  RH  029%=      5-min Rain = 0
KJTS 082120Z 24014G21KT 24/05 A2977 RMK A01 T02360048  RH  030%=      5-min Rain = 0
KJTS 082125Z 24016G21KT 24/05 A2977 RMK A01 T02350048  RH  030%=      5-min Rain = 0
KJTS 082130Z 24017G23KT 23/05 A2977 RMK A01 T02340048  RH  031%=      5-min Rain = 0
KJTS 082135Z 24016G22KT 23/05 A2977 RMK A01 T02330049  RH  031%=      5-min Rain = 0
KJTS 082140Z 24015G22KT 23/05 A2976 RMK A01 T02340050  RH  031%=      5-min Rain = 0
KJTS 082145Z 24014KT 24/05 A2976 RMK A01 T02350051  RH  031%=      5-min Rain = 0
KJTS 082150Z 23014KT 23/05 A2976 RMK A01 T02340052  RH  031%=      5-min Rain = 0
KJTS 082155Z 23013G18KT 23/05 A2976 RMK A01 T02320052  RH  032%=      5-min Rain = 0
KJTS 082200Z 23014G20KT 23/05 A2977 RMK A01 T02300052  RH  032%=      5-min Rain = 0
KJTS 082205Z 23012G17KT 23/05 A2976 RMK A01 T02280052  RH  033%=      5-min Rain = 0
KJTS 082210Z 23013G18KT 23/05 A2976 RMK A01 T02270053  RH  033%=      5-min Rain = 0
KJTS 082215Z 23013G18KT 23/05 A2976 RMK A01 T02260053  RH  033%=      5-min Rain = 0
KJTS 082220Z 23013G18KT 23/05 A2976 RMK A01 T02250053  RH  033%=      5-min Rain = 0
KJTS 082225Z 22013G18KT 22/05 A2976 RMK A01 T02230053  RH  034%=      5-min Rain = 0
KJTS 082230Z 23013KT 22/05 A2976 RMK A01 T02230052  RH  034%=      5-min Rain = 0
KJTS 082235Z 23012KT 22/05 A2976 RMK A01 T02220053  RH  034%=      5-min Rain = 0
KJTS 082240Z 22011KT 22/05 A2975 RMK A01 T02200054  RH  035%=      5-min Rain = 0
KJTS 082245Z 22011KT 22/06 A2975 RMK A01 T02170055  RH  035%=      5-min Rain = 0
KJTS 082250Z 22011KT 22/06 A2975 RMK A01 T02160055  RH  036%=      5-min Rain = 0
KJTS 082255Z 22010G16KT 21/06 A2975 RMK A01 T02140056  RH  036%=      5-min Rain = 0
KJTS 082300Z 22011KT 21/06 A2976 RMK A01 T02140056  RH  037%=      5-min Rain = 0
KJTS 082305Z 22010G15KT 21/06 A2976 RMK A01 T02140056  RH  037%=      5-min Rain = 0
KJTS 082310Z 22011KT 21/06 A2976 RMK A01 T02110056  RH  037%=      5-min Rain = 0
KJTS 082315Z 22010KT 21/06 A2976 RMK A01 T02110056  RH  037%=      5-min Rain = 0
KJTS 082320Z 22010KT 21/06 A2977 RMK A01 T02080057  RH  038%=      5-min Rain = 0
KJTS 082325Z 22011KT 21/06 A2977 RMK A01 T02060057  RH  039%=      5-min Rain = 0
KJTS 082330Z 22011KT 21/06 A2977 RMK A01 T02050057  RH  039%=      5-min Rain = 0
KJTS 082335Z 22011KT 20/06 A2977 RMK A01 T02030057  RH  039%=      5-min Rain = 0
KJTS 082340Z 22010KT 20/06 A2977 RMK A01 T02010058  RH  040%=      5-min Rain = 0
KJTS 082345Z 22010KT 20/06 A2977 RMK A01 T02000058  RH  040%=      5-min Rain = 0
KJTS 082350Z 22010KT 20/06 A2977 RMK A01 T02000058  RH  040%=      5-min Rain = 0
KJTS 082355Z 22010KT 20/06 A2977 RMK A01 T01970058  RH  041%=      5-min Rain = 0
KJTS 090000Z 22009KT 20/06 A2976 RMK A01 T01960058  RH  041%=      5-min Rain = 0
KJTS 090005Z 22009KT 19/06 A2977 RMK A01 T01940058  RH  042%=      5-min Rain = 0
KJTS 090010Z 22009KT 19/06 A2977 RMK A01 T01940058  RH  042%=      5-min Rain = 0
KJTS 090015Z 22009KT 19/06 A2977 RMK A01 T01930058  RH  042%=      5-min Rain = 0
KJTS 090020Z 22009KT 19/06 A2977 RMK A01 T01910058  RH  043%=      5-min Rain = 0
KJTS 090025Z 22009KT 19/06 A2977 RMK A01 T01920058  RH  042%=      5-min Rain = 0
KJTS 090030Z 21008KT 19/06 A2977 RMK A01 T01890059  RH  043%=      5-min Rain = 0
KJTS 090035Z 21007KT 19/06 A2976 RMK A01 T01850059  RH  045%=      5-min Rain = 0
KJTS 090040Z 22007KT 18/06 A2977 RMK A01 T01840058  RH  045%=      5-min Rain = 0
KJTS 090045Z 22007KT 18/06 A2977 RMK A01 T01840058  RH  045%=      5-min Rain = 0
KJTS 090050Z 22008KT 19/06 A2977 RMK A01 T01860058  RH  044%=      5-min Rain = 0
KJTS 090055Z 22007KT 18/06 A2977 RMK A01 T01840058  RH  045%=      5-min Rain = 0
KJTS 090100Z 22007KT 18/06 A2977 RMK A01 T01810059  RH  046%=      5-min Rain = 0
KJTS 090105Z 21006KT 18/06 A2977 RMK A01 T01780059  RH  047%=      5-min Rain = 0
KJTS 090110Z 21006KT 17/06 A2977 RMK A01 T01740059  RH  048%=      5-min Rain = 0
KJTS 090115Z 21006KT 17/06 A2977 RMK A01 T01720059  RH  048%=      5-min Rain = 0
KJTS 090120Z 20006KT 17/06 A2977 RMK A01 T01710059  RH  049%=      5-min Rain = 0
KJTS 090125Z 21007KT 17/06 A2977 RMK A01 T01690059  RH  049%=      5-min Rain = 0
KJTS 090130Z 21006KT 17/06 A2977 RMK A01 T01680059  RH  050%=      5-min Rain = 0
KJTS 090135Z 21006KT 17/06 A2977 RMK A01 T01660059  RH  051%=      5-min Rain = 0
KJTS 090140Z 21006KT 16/06 A2977 RMK A01 T01640059  RH  051%=      5-min Rain = 0
KJTS 090145Z 21006KT 16/06 A2977 RMK A01 T01610059  RH  052%=      5-min Rain = 0
KJTS 090150Z 22006KT 16/06 A2977 RMK A01 T01600058  RH  052%=      5-min Rain = 0
KJTS 090155Z 22006KT 16/06 A2977 RMK A01 T01600058  RH  052%=      5-min Rain = 0
KJTS 090200Z 23007KT 16/06 A2977 RMK A01 T01640058  RH  051%=      5-min Rain = 0
KJTS 090205Z 22006KT 17/06 A2977 RMK A01 T01660058  RH  050%=      5-min Rain = 0
KJTS 090210Z 22005KT 16/06 A2977 RMK A01 T01590058  RH  052%=      5-min Rain = 0
KJTS 090215Z 23006KT 16/06 A2977 RMK A01 T01580058  RH  053%=      5-min Rain = 0
KJTS 090220Z 22006KT 16/06 A2977 RMK A01 T01580058  RH  053%=      5-min Rain = 0
KJTS 090225Z 23006KT 16/06 A2977 RMK A01 T01560059  RH  054%=      5-min Rain = 0
KJTS 090230Z 24006KT 16/06 A2977 RMK A01 T01570059  RH  053%=      5-min Rain = 0
KJTS 090235Z 24006KT 16/06 A2977 RMK A01 T01550059  RH  054%=      5-min Rain = 0
KJTS 090240Z 25007KT 15/06 A2977 RMK A01 T01530059  RH  055%=      5-min Rain = 0
KJTS 090245Z 27007KT 15/06 A2977 RMK A01 T01510059  RH  055%=      5-min Rain = 0
KJTS 090250Z 27007KT 15/06 A2977 RMK A01 T01480060  RH  057%=      5-min Rain = 0
KJTS 090255Z 28007KT 15/06 A2978 RMK A01 T01480060  RH  057%=      5-min Rain = 0
KJTS 090300Z 28007KT 15/06 A2978 RMK A01 T01470060  RH  057%=      5-min Rain = 0
KJTS 090305Z 26006KT 15/06 A2978 RMK A01 T01460060  RH  057%=      5-min Rain = 0
KJTS 090310Z 25006KT 15/06 A2977 RMK A01 T01460060  RH  058%=      5-min Rain = 0
KJTS 090315Z 23005KT 15/06 A2977 RMK A01 T01460060  RH  058%=      5-min Rain = 0
KJTS 090320Z 24006KT 15/06 A2977 RMK A01 T01480060  RH  057%=      5-min Rain = 0
KJTS 090325Z 25006KT 15/06 A2978 RMK A01 T01490061  RH  057%=      5-min Rain = 0
KJTS 090330Z 25006KT 15/06 A2979 RMK A01 T01480061  RH  057%=      5-min Rain = 0
KJTS 090335Z 25007KT 15/06 A2979 RMK A01 T01490061  RH  057%=      5-min Rain = 0
KJTS 090340Z 25007KT 16/06 A2978 RMK A01 T01550061  RH  055%=      5-min Rain = 0
KJTS 090345Z 25008KT 16/06 A2977 RMK A01 T01600061  RH  053%=      5-min Rain = 0
KJTS 090350Z 25008KT 16/06 A2978 RMK A01 T01630061  RH  052%=      5-min Rain = 0
KJTS 090355Z 26010KT 17/06 A2978 RMK A01 T01650061  RH  051%=      5-min Rain = 0
KJTS 090400Z 25008KT 16/06 A2978 RMK A01 T01640061  RH  051%=      5-min Rain = 0
KJTS 090405Z 25009KT 16/06 A2978 RMK A01 T01630061  RH  052%=      5-min Rain = 0
KJTS 090410Z 25010KT 16/06 A2978 RMK A01 T01640061  RH  051%=      5-min Rain = 0
KJTS 090415Z 26010KT 17/06 A2978 RMK A01 T01650060  RH  051%=      5-min Rain = 0
KJTS 090420Z 25010KT 17/06 A2979 RMK A01 T01650060  RH  051%=      5-min Rain = 0
KJTS 090425Z 25009KT 17/06 A2978 RMK A01 T01650060  RH  051%=      5-min Rain = 0
KJTS 090430Z 26010KT 17/06 A2978 RMK A01 T01650060  RH  051%=      5-min Rain = 0
KJTS 090435Z 25009KT 16/06 A2978 RMK A01 T01640060  RH  051%=      5-min Rain = 0
KJTS 090440Z 25009G14KT 16/06 A2978 RMK A01 T01630059  RH  051%=      5-min Rain = 0
KJTS 090445Z 25010KT 16/06 A2977 RMK A01 T01630059  RH  051%=      5-min Rain = 0
KJTS 090450Z 25011KT 16/06 A2978 RMK A01 T01640058  RH  051%=      5-min Rain = 0
KJTS 090455Z 26010KT 16/06 A2978 RMK A01 T01640058  RH  051%=      5-min Rain = 0
KJTS 090500Z 26009KT 16/06 A2978 RMK A01 T01630058  RH  051%=      5-min Rain = 0
KJTS 090505Z 25010KT 16/06 A2978 RMK A01 T01630058  RH  051%=      5-min Rain = 0
KJTS 090510Z 26009KT 16/06 A2978 RMK A01 T01620058  RH  051%=      5-min Rain = 0
KJTS 090515Z 26010KT 16/06 A2978 RMK A01 T01620058  RH  051%=      5-min Rain = 0
KJTS 090520Z 26011KT 16/06 A2978 RMK A01 T01610058  RH  051%=      5-min Rain = 0
KJTS 090525Z 27010KT 16/06 A2978 RMK A01 T01600058  RH  052%=      5-min Rain = 0
KJTS 090530Z 27010KT 16/06 A2978 RMK A01 T01580058  RH  053%=      5-min Rain = 0
KJTS 090535Z 26009KT 16/06 A2978 RMK A01 T01560058  RH  053%=      5-min Rain = 0
KJTS 090540Z 25010KT 16/06 A2978 RMK A01 T01570057  RH  053%=      5-min Rain = 0
KJTS 090545Z 26010KT 16/06 A2978 RMK A01 T01580057  RH  052%=      5-min Rain = 0
KJTS 090550Z 26010KT 16/06 A2978 RMK A01 T01590057  RH  052%=      5-min Rain = 0
KJTS 090555Z 27010KT 16/06 A2978 RMK A01 T01600057  RH  052%=      5-min Rain = 0

Page generated in 0.0252 seconds.